Terminal Aerodrome Forecast
Issued by NWS Riverton, WY

Home | Current Version | Previous Version | Text Only | Print | Product List | Glossary On
Versions: 1 2 3 4 5 6 7 8 9 10 11 12 13
490
FTUS45 KRIW 231727
TAFRIW
TAF
KRIW 231727Z 2318/2418 22011KT P6SM BKN200
     FM240100 25011KT P6SM SCT250
     FM240500 27018G28KT P6SM SCT250 WS020/27040KT
     FM241700 33015KT P6SM BKN100=

USA.gov is the U.S. government's official web portal to all federal, state and local government web resources and services.